Time;durP1;ratioP1;P1;durP2;ratioP2;P2;SDS_P1;SDS_P2;PMS_P1;PMS_P2;Temp;Humidity;BMP_temperature;BMP_pressure;BME280_temperature;BME280_humidity;BME280_pressure;Samples;Min_cycle;Max_cycle;Signal;HPM_P1;HPM_P2
2022/07/20 00:01:31;;;;;;;5.18;3.15;;;;;;;22.43;45.90;98897.97;5032295;28;20107;-78
2022/07/20 00:03:58;;;;;;;4.85;2.75;;;;;;;22.36;46.77;98913.16;5030625;28;20140;-78
2022/07/20 00:06:25;;;;;;;3.83;2.70;;;;;;;22.09;47.62;98900.22;5031495;28;20420;-78
2022/07/20 00:11:39;;;;;;;6.90;3.53;;;;;;;21.89;48.65;98887.09;5024617;28;20051;-78
2022/07/20 00:14:06;;;;;;;5.60;2.97;;;;;;;21.74;49.30;98904.41;5030060;28;20053;-78
2022/07/20 00:16:36;;;;;;;7.03;3.00;;;;;;;21.51;50.09;98902.81;5037292;28;20050;-78
2022/07/20 00:19:03;;;;;;;4.68;2.92;;;;;;;21.62;49.96;98912.03;5033275;28;20043;-78
2022/07/20 00:21:30;;;;;;;7.40;3.60;;;;;;;21.47;50.75;98910.78;5031965;28;20084;-78
2022/07/20 00:23:58;;;;;;;7.72;2.78;;;;;;;21.54;50.15;98916.97;5036545;28;20057;-78
2022/07/20 00:26:25;;;;;;;14.23;3.38;;;;;;;21.25;48.99;98901.75;5030540;28;20045;-78
2022/07/20 00:28:51;;;;;;;4.32;2.95;;;;;;;21.46;48.68;98917.41;5030925;28;20057;-78
2022/07/20 00:31:18;;;;;;;8.13;3.20;;;;;;;21.52;48.54;98896.22;5030624;28;20056;-78
2022/07/20 00:33:46;;;;;;;7.13;3.35;;;;;;;21.42;48.57;98883.09;5024387;28;20049;-78
2022/07/20 00:36:13;;;;;;;14.35;3.55;;;;;;;21.35;49.50;98896.31;5028889;28;20064;-78
2022/07/20 00:38:40;;;;;;;15.55;3.33;;;;;;;21.22;50.90;98892.03;5029680;28;20041;-78
2022/07/20 00:41:08;;;;;;;7.97;3.45;;;;;;;21.09;51.37;98898.81;5031094;28;20413;-79
2022/07/20 00:43:53;;;;;;;5.07;2.75;;;;;;;21.21;51.80;98893.97;5030983;28;20045;-78
2022/07/20 00:46:20;;;;;;;4.20;2.83;;;;;;;21.02;52.06;98884.38;5031068;28;20053;-78
2022/07/20 00:48:47;;;;;;;6.22;2.80;;;;;;;20.79;52.99;98863.38;5041465;28;20049;-78
2022/07/20 00:51:14;;;;;;;6.00;3.20;;;;;;;20.75;53.05;98867.78;5020631;28;20489;-78
2022/07/20 00:53:41;;;;;;;5.85;2.85;;;;;;;20.98;53.00;98875.75;5030171;28;20037;-78
2022/07/20 00:56:09;;;;;;;9.68;3.15;;;;;;;20.85;53.54;98865.09;5030475;28;20493;-79
2022/07/20 00:58:36;;;;;;;4.88;2.85;;;;;;;20.98;53.55;98889.56;5030983;28;20099;-78
2022/07/20 01:01:02;;;;;;;9.38;3.20;;;;;;;20.82;52.37;98893.25;5026691;28;20050;-78
2022/07/20 01:03:29;;;;;;;6.95;3.58;;;;;;;20.65;52.61;98885.88;5029341;28;20063;-77
2022/07/20 01:05:56;;;;;;;15.55;3.05;;;;;;;20.70;51.44;98893.41;5030850;28;20045;-78
2022/07/20 01:08:22;;;;;;;14.50;4.18;;;;;;;20.59;52.93;98881.34;5030458;28;20626;-78
2022/07/20 01:10:49;;;;;;;4.07;2.90;;;;;;;20.59;52.81;98895.16;5030628;28;20061;-78
2022/07/20 01:13:17;;;;;;;5.90;2.70;;;;;;;20.43;52.65;98876.75;5029452;28;20053;-78
2022/07/20 01:15:45;;;;;;;6.20;3.30;;;;;;;20.57;53.13;98902.88;5029420;28;20050;-78
2022/07/20 01:18:12;;;;;;;4.90;2.40;;;;;;;20.51;52.37;98898.41;5028883;28;20099;-78
2022/07/20 01:20:45;;;;;;;7.07;3.33;;;;;;;20.57;52.67;98885.50;5027734;28;20045;-78
2022/07/20 01:23:13;;;;;;;5.40;2.83;;;;;;;20.57;52.36;98891.00;5025913;28;20136;-78
2022/07/20 01:25:39;;;;;;;7.95;3.00;;;;;;;20.45;52.92;98885.63;5030511;28;20488;-78
2022/07/20 01:28:06;;;;;;;7.80;3.03;;;;;;;20.57;52.79;98900.13;5028891;28;20057;-78
2022/07/20 01:30:32;;;;;;;8.20;2.97;;;;;;;20.49;52.43;98892.31;5031403;28;20049;-78
2022/07/20 01:32:59;;;;;;;5.03;2.80;;;;;;;20.41;52.41;98890.78;5034982;28;20175;-78
2022/07/20 01:35:26;;;;;;;14.15;3.45;;;;;;;20.36;52.69;98903.72;5041976;28;20049;-78
2022/07/20 01:37:52;;;;;;;8.38;3.17;;;;;;;20.26;52.96;98896.94;5032079;28;20448;-78
2022/07/20 01:40:20;;;;;;;6.20;2.92;;;;;;;20.29;54.02;98910.25;5032586;28;20053;-78
2022/07/20 01:42:47;;;;;;;7.43;3.47;;;;;;;20.13;54.43;98909.19;5029868;28;20504;-78
2022/07/20 01:45:14;;;;;;;5.93;2.85;;;;;;;20.00;52.66;98887.47;5026872;28;20045;-78
2022/07/20 01:47:41;;;;;;;9.52;3.10;;;;;;;20.10;52.35;98898.69;5025740;28;20133;-78
2022/07/20 01:50:09;;;;;;;8.90;3.08;;;;;;;20.27;52.07;98915.19;5032600;28;20124;-78
2022/07/20 01:52:35;;;;;;;5.32;2.90;;;;;;;20.07;54.10;98904.69;5044618;28;20045;-78
2022/07/20 01:55:02;;;;;;;6.40;2.92;;;;;;;20.00;54.56;98893.00;5031385;28;20079;-78
2022/07/20 01:57:29;;;;;;;4.82;3.03;;;;;;;19.92;57.04;98916.34;5028533;28;20046;-78
2022/07/20 01:59:56;;;;;;;6.53;3.38;;;;;;;19.61;58.58;98896.50;5029365;28;20056;-78
2022/07/20 02:02:23;;;;;;;5.88;3.70;;;;;;;19.68;58.81;98915.66;5031561;28;20060;-78
2022/07/20 02:04:49;;;;;;;5.65;2.92;;;;;;;19.30;60.01;98899.81;5030996;28;20061;-78
2022/07/20 02:07:16;;;;;;;9.20;3.92;;;;;;;19.26;59.47;98894.00;5039429;28;20053;-78
2022/07/20 02:09:42;;;;;;;8.18;3.85;;;;;;;19.33;59.07;98902.94;5031871;28;20053;-78
2022/07/20 02:12:09;;;;;;;6.80;2.97;;;;;;;19.32;57.21;98898.50;5031240;28;20057;-77
2022/07/20 02:14:37;;;;;;;8.07;2.88;;;;;;;19.49;57.63;98908.72;5028107;28;20052;-78
2022/07/20 02:17:03;;;;;;;4.88;2.95;;;;;;;19.44;58.20;98902.00;5031235;28;20056;-78
2022/07/20 02:19:30;;;;;;;4.95;2.88;;;;;;;19.50;57.78;98899.38;5031544;28;20053;-78
2022/07/20 02:21:56;;;;;;;6.25;3.08;;;;;;;19.58;57.21;98894.25;5031640;28;20056;-78
2022/07/20 02:24:23;;;;;;;10.73;3.45;;;;;;;19.53;57.39;98904.38;5029812;28;20071;-78
2022/07/20 02:26:49;;;;;;;5.32;2.85;;;;;;;19.62;57.89;98916.66;5040612;28;20058;-78
2022/07/20 02:29:16;;;;;;;13.38;4.32;;;;;;;19.46;58.23;98904.53;5031024;28;20049;-78
2022/07/20 02:31:43;;;;;;;4.78;2.70;;;;;;;19.32;59.02;98912.28;5033729;28;20041;-78
2022/07/20 02:34:10;;;;;;;6.85;3.35;;;;;;;19.35;59.43;98898.00;5034123;28;20061;-78
2022/07/20 02:36:37;;;;;;;5.30;3.30;;;;;;;19.17;61.38;98901.00;5035522;28;20049;-78
2022/07/20 02:39:04;;;;;;;8.93;3.70;;;;;;;18.99;62.43;98900.09;5034861;28;20045;-78
2022/07/20 02:41:32;;;;;;;10.77;2.85;;;;;;;18.86;63.99;98914.16;5028631;28;20046;-78
2022/07/20 02:43:59;;;;;;;5.65;3.00;;;;;;;18.81;64.25;98912.13;5022531;28;20107;-78
2022/07/20 02:46:26;;;;;;;8.85;3.30;;;;;;;18.85;63.29;98901.47;5035266;28;20061;-78
2022/07/20 02:48:53;;;;;;;10.57;3.13;;;;;;;18.97;63.00;98915.19;5034932;28;20045;-78
2022/07/20 02:51:20;;;;;;;8.10;2.63;;;;;;;18.87;62.29;98891.06;5034128;28;20041;-78
2022/07/20 02:53:46;;;;;;;6.50;3.10;;;;;;;19.06;63.20;98911.00;5034191;28;20079;-78
2022/07/20 02:56:13;;;;;;;6.32;3.50;;;;;;;18.86;64.34;98911.41;5028294;28;20060;-78
2022/07/20 02:58:39;;;;;;;7.43;3.28;;;;;;;18.75;65.21;98896.59;5041525;28;20045;-78
2022/07/20 03:01:06;;;;;;;7.00;3.33;;;;;;;18.53;64.44;98888.16;5034766;28;20046;-78
2022/07/20 03:03:33;;;;;;;6.25;2.97;;;;;;;18.56;64.84;98895.91;5028355;28;20133;-78
2022/07/20 03:06:00;;;;;;;7.72;3.20;;;;;;;18.35;65.54;98889.16;5034891;28;20054;-78
2022/07/20 03:08:27;;;;;;;8.68;3.22;;;;;;;18.31;66.94;98899.81;5034985;28;20053;-78
2022/07/20 03:10:53;;;;;;;9.00;3.38;;;;;;;18.17;68.14;98902.00;5017080;28;20050;-78
2022/07/20 03:13:20;;;;;;;4.00;2.85;;;;;;;18.35;66.89;98901.00;5037864;28;20041;-78
2022/07/20 03:15:46;;;;;;;7.30;3.00;;;;;;;18.41;66.90;98901.94;5043582;28;20049;-78
2022/07/20 03:18:13;;;;;;;4.72;3.13;;;;;;;18.60;66.85;98910.88;5034407;28;20431;-78
2022/07/20 03:20:40;;;;;;;7.80;3.22;;;;;;;18.66;66.02;98914.56;5033628;28;20049;-78
2022/07/20 03:23:07;;;;;;;6.75;3.08;;;;;;;18.51;66.73;98882.06;5033542;28;20045;-78
2022/07/20 03:25:34;;;;;;;4.55;3.13;;;;;;;18.35;67.52;98878.13;5033388;28;20042;-77
2022/07/20 03:28:01;;;;;;;6.40;2.63;;;;;;;18.50;66.53;98902.41;5038331;28;20416;-78
2022/07/20 03:30:28;;;;;;;5.30;3.20;;;;;;;18.39;66.85;98896.66;5029046;28;20041;-78
2022/07/20 03:32:54;;;;;;;6.50;2.65;;;;;;;18.43;66.17;98904.44;5033198;28;20049;-78
2022/07/20 03:35:21;;;;;;;10.35;3.10;;;;;;;18.47;66.26;98919.41;5033997;28;20448;-78
2022/07/20 03:37:48;;;;;;;4.45;2.95;;;;;;;18.15;67.71;98903.31;5034491;28;20046;-78
2022/07/20 03:40:16;;;;;;;6.30;3.20;;;;;;;18.11;69.51;98916.72;5024553;28;20076;-78
2022/07/20 03:42:42;;;;;;;5.78;2.75;;;;;;;18.30;69.17;98922.06;5030617;28;20060;-77
2022/07/20 03:45:10;;;;;;;10.55;3.63;;;;;;;18.20;69.68;98923.53;5033367;28;20045;-77
2022/07/20 03:47:37;;;;;;;8.52;3.90;;;;;;;17.90;70.83;98911.78;5038564;28;20049;-77
2022/07/20 03:50:04;;;;;;;7.15;4.10;;;;;;;17.86;71.98;98930.66;5041546;28;20071;-78
2022/07/20 03:52:31;;;;;;;8.25;3.80;;;;;;;17.72;72.45;98926.47;5033035;28;20515;-78
2022/07/20 03:54:57;;;;;;;6.53;2.92;;;;;;;17.75;71.71;98915.84;5033520;28;20413;-78
2022/07/20 03:57:25;;;;;;;7.45;3.10;;;;;;;17.69;73.25;98905.81;5033866;28;20053;-77
2022/07/20 03:59:52;;;;;;;4.72;3.38;;;;;;;17.79;74.04;98922.50;5032043;28;20064;-78
2022/07/20 04:02:18;;;;;;;6.25;3.50;;;;;;;17.70;74.77;98907.44;5045142;28;20076;-77
2022/07/20 04:04:45;;;;;;;7.18;3.38;;;;;;;17.91;73.90;98922.56;5037730;28;20132;-77
2022/07/20 04:07:11;;;;;;;6.07;3.60;;;;;;;17.95;73.88;98912.75;5033445;28;20390;-77
2022/07/20 04:09:47;;;;;;;5.95;2.95;;;;;;;17.89;72.49;98912.88;5032677;28;20116;-78
2022/07/20 04:12:16;;;;;;;6.53;3.13;;;;;;;17.92;72.88;98904.16;5033135;28;20048;-78
2022/07/20 04:14:44;;;;;;;8.70;3.55;;;;;;;17.81;73.09;98890.13;5032909;28;20500;-77
2022/07/20 04:17:11;;;;;;;4.70;3.05;;;;;;;17.80;73.93;98899.44;5032863;28;20053;-78
2022/07/20 04:19:38;;;;;;;3.10;2.47;;;;;;;17.67;75.11;98905.19;5033864;28;20048;-76
2022/07/20 04:22:05;;;;;;;5.57;3.55;;;;;;;17.79;74.36;98907.94;5029309;28;20049;-77
2022/07/20 04:24:32;;;;;;;4.60;3.00;;;;;;;18.13;73.20;98916.47;5031035;28;20048;-78
2022/07/20 04:26:58;;;;;;;4.13;3.00;;;;;;;18.27;72.72;98912.38;5031424;28;20054;-77
2022/07/20 04:29:25;;;;;;;4.57;3.53;;;;;;;18.23;73.04;98905.66;5031697;28;20048;-78
2022/07/20 04:31:53;;;;;;;11.65;3.90;;;;;;;18.26;74.29;98921.72;5032692;28;20054;-77
2022/07/20 04:34:20;;;;;;;7.55;3.83;;;;;;;18.06;76.10;98921.25;5032229;28;20056;-78
2022/07/20 04:36:46;;;;;;;7.07;3.50;;;;;;;17.97;74.94;98909.78;5032172;28;20050;-77
2022/07/20 04:39:13;;;;;;;6.18;3.28;;;;;;;18.17;73.70;98928.66;5032337;28;20063;-78
2022/07/20 04:41:39;;;;;;;6.97;3.10;;;;;;;18.27;71.76;98925.31;5031232;28;20624;-78
2022/07/20 04:44:06;;;;;;;5.55;3.00;;;;;;;18.34;69.61;98907.59;5023849;28;20053;-78
2022/07/20 04:46:33;;;;;;;7.63;3.35;;;;;;;18.59;68.75;98917.44;5028859;28;20590;-78
2022/07/20 04:49:01;;;;;;;5.78;3.53;;;;;;;18.68;71.31;98932.53;5015443;28;20080;-78
2022/07/20 04:51:28;;;;;;;6.28;3.45;;;;;;;18.52;74.28;98925.84;5032810;28;20052;-78
2022/07/20 04:53:54;;;;;;;7.82;3.42;;;;;;;18.51;75.10;98932.44;5037769;28;20440;-78
2022/07/20 04:56:21;;;;;;;5.15;3.28;;;;;;;18.28;76.65;98908.56;5031441;28;20049;-78
2022/07/20 04:58:50;;;;;;;7.05;3.42;;;;;;;18.46;76.10;98937.00;5032517;28;20046;-77
2022/07/20 05:01:19;;;;;;;5.72;3.33;;;;;;;18.43;76.31;98912.69;5020480;28;20125;-77
2022/07/20 05:03:45;;;;;;;7.95;5.18;;;;;;;18.68;72.12;98932.53;5030868;28;20045;-77
2022/07/20 05:06:13;;;;;;;6.88;3.50;;;;;;;18.69;71.26;98923.16;5032406;28;20061;-77
2022/07/20 05:08:40;;;;;;;12.27;3.70;;;;;;;18.61;71.35;98917.19;5029602;28;20055;-78
2022/07/20 05:11:06;;;;;;;10.52;3.40;;;;;;;18.99;68.43;98924.06;5049891;28;20049;-77
2022/07/20 05:13:33;;;;;;;7.65;3.47;;;;;;;19.52;65.12;98902.69;5031497;28;20047;-78
2022/07/20 05:15:59;;;;;;;7.47;3.95;;;;;;;20.40;61.89;98908.47;5031367;28;20071;-77
2022/07/20 05:18:26;;;;;;;13.18;3.50;;;;;;;21.25;58.63;98921.91;5032210;28;20056;-77
2022/07/20 05:20:52;;;;;;;7.38;3.40;;;;;;;21.90;56.08;98927.50;5032306;28;20053;-77
2022/07/20 05:23:20;;;;;;;11.52;4.45;;;;;;;22.39;54.29;98901.53;5039145;28;20056;-78
2022/07/20 05:25:49;;;;;;;8.90;3.42;;;;;;;22.70;54.72;98893.34;5032221;28;20064;-78
2022/07/20 05:28:18;;;;;;;5.93;3.28;;;;;;;22.85;54.42;98882.31;5032075;28;20077;-77
2022/07/20 05:30:44;;;;;;;7.50;3.05;;;;;;;23.04;52.46;98913.16;5031766;28;20041;-78
2022/07/20 05:33:11;;;;;;;14.90;3.90;;;;;;;22.90;52.32;98923.06;5031007;28;20679;-77
2022/07/20 05:35:37;;;;;;;7.65;2.97;;;;;;;23.05;53.18;98906.50;5032368;28;20057;-78
2022/07/20 05:38:04;;;;;;;11.52;3.20;;;;;;;23.25;51.37;98919.59;5032284;28;20050;-78
2022/07/20 05:40:32;;;;;;;9.10;4.32;;;;;;;23.43;50.83;98921.03;5035854;28;20416;-78
2022/07/20 05:42:58;;;;;;;7.97;3.28;;;;;;;23.81;49.97;98912.44;5029915;28;20414;-78
2022/07/20 05:45:25;;;;;;;5.65;3.45;;;;;;;24.16;48.99;98916.31;5031638;28;20053;-78
2022/07/20 05:47:51;;;;;;;3.85;3.05;;;;;;;24.28;48.55;98932.66;5026311;28;20050;-78
2022/07/20 05:50:18;;;;;;;5.25;3.47;;;;;;;24.69;47.86;98921.44;5023599;28;20057;-77
2022/07/20 05:52:44;;;;;;;10.68;3.55;;;;;;;24.82;46.99;98920.84;5012274;28;20054;-78
2022/07/20 05:55:11;;;;;;;9.38;3.45;;;;;;;25.20;46.49;98931.50;5031376;28;20046;-78
2022/07/20 05:57:39;;;;;;;14.25;3.70;;;;;;;25.37;45.92;98922.81;5035708;28;20054;-78
2022/07/20 06:00:08;;;;;;;9.63;3.60;;;;;;;25.73;45.54;98931.72;5032210;28;20049;-78
2022/07/20 06:02:34;;;;;;;13.63;3.00;;;;;;;25.77;45.44;98918.88;5030108;28;20127;-78
2022/07/20 06:05:00;;;;;;;10.35;3.42;;;;;;;25.78;44.34;98933.63;5029672;28;20141;-78
2022/07/20 06:07:27;;;;;;;18.10;3.70;;;;;;;25.93;44.24;98943.81;5026624;28;20077;-78
2022/07/20 06:09:54;;;;;;;13.63;3.75;;;;;;;26.22;43.92;98943.81;5035012;28;20103;-78
2022/07/20 06:12:20;;;;;;;17.52;4.60;;;;;;;26.70;42.65;98945.84;5038079;28;22126;-78
2022/07/20 06:14:48;;;;;;;13.82;3.33;;;;;;;26.80;42.38;98942.94;5035179;28;20497;-78
2022/07/20 06:17:15;;;;;;;18.92;3.58;;;;;;;26.80;42.25;98929.00;5034238;28;20049;-78
2022/07/20 06:19:41;;;;;;;26.48;3.95;;;;;;;27.03;42.05;98948.78;5035793;28;20056;-78
2022/07/20 06:22:08;;;;;;;30.40;4.85;;;;;;;27.40;42.00;98944.41;5034687;28;20046;-78
2022/07/20 06:24:35;;;;;;;12.57;3.17;;;;;;;27.69;41.00;98955.41;5035547;28;20489;-78
2022/07/20 06:27:01;;;;;;;20.25;3.75;;;;;;;27.27;41.40;98948.75;5033655;28;20064;-78
2022/07/20 06:29:28;;;;;;;18.73;3.58;;;;;;;27.73;41.80;98955.63;5035414;28;20046;-78
2022/07/20 06:31:56;;;;;;;12.80;3.22;;;;;;;28.02;40.72;98965.81;5035393;28;20060;-78
2022/07/20 06:34:22;;;;;;;23.85;3.88;;;;;;;28.09;40.24;98969.03;5035070;28;20046;-78
2022/07/20 06:36:49;;;;;;;25.02;3.88;;;;;;;28.19;40.24;98977.22;5034874;28;20057;-78
2022/07/20 06:39:15;;;;;;;19.75;3.28;;;;;;;27.86;41.28;98973.56;5035596;28;20120;-78
2022/07/20 06:41:42;;;;;;;26.50;3.55;;;;;;;27.59;41.31;98985.44;5035237;28;20474;-78
2022/07/20 06:44:08;;;;;;;17.52;3.40;;;;;;;27.65;41.16;98970.28;5034866;28;20053;-78
2022/07/20 06:46:35;;;;;;;18.70;3.55;;;;;;;28.54;40.56;98982.47;5033924;28;20041;-78
2022/07/20 06:49:03;;;;;;;9.82;3.15;;;;;;;28.66;38.16;98960.44;5051268;28;20049;-77
2022/07/20 06:51:29;;;;;;;12.40;2.85;;;;;;;28.87;37.16;98982.44;5042117;28;20065;-77
2022/07/20 06:53:55;;;;;;;7.22;3.70;;;;;;;28.90;37.02;98965.84;5033867;28;20117;-77
2022/07/20 06:56:22;;;;;;;7.78;2.42;;;;;;;29.00;36.62;98975.19;5035261;28;20049;-77
2022/07/20 06:58:48;;;;;;;13.80;3.47;;;;;;;28.79;36.58;98970.00;5033901;28;20050;-77
2022/07/20 07:01:15;;;;;;;13.48;2.90;;;;;;;29.27;36.56;98965.94;5034368;28;20148;-79
2022/07/20 07:03:42;;;;;;;7.45;2.65;;;;;;;29.09;36.12;98957.34;5030827;28;20044;-79
2022/07/20 07:06:09;;;;;;;7.55;2.20;;;;;;;29.12;35.09;98961.47;5014391;28;20050;-79
2022/07/20 07:08:36;;;;;;;4.80;2.35;;;;;;;29.26;35.54;98958.69;5023297;28;20469;-79
2022/07/20 07:11:02;;;;;;;5.05;2.50;;;;;;;29.53;34.90;98963.38;5033424;28;20060;-78
2022/07/20 07:13:29;;;;;;;4.90;2.67;;;;;;;30.00;34.50;98966.75;5033690;28;20045;-78
2022/07/20 07:15:55;;;;;;;10.27;2.63;;;;;;;29.83;33.68;98964.66;5032688;28;20060;-79
2022/07/20 07:18:22;;;;;;;3.90;2.53;;;;;;;29.59;34.41;98942.50;5036042;28;20052;-79
2022/07/20 07:20:48;;;;;;;3.78;2.35;;;;;;;29.92;34.17;98964.72;5037453;28;20140;-79
2022/07/20 07:23:16;;;;;;;7.40;2.47;;;;;;;30.07;34.44;98957.06;5032452;28;20512;-78
2022/07/20 07:25:43;;;;;;;6.60;2.30;;;;;;;29.95;34.46;98955.66;5034185;28;20060;-78
2022/07/20 07:28:09;;;;;;;5.63;2.63;;;;;;;30.09;34.87;98968.78;5033766;28;20057;-78
2022/07/20 07:30:36;;;;;;;7.20;2.83;;;;;;;29.98;34.68;98951.41;5033075;28;20128;-78
2022/07/20 07:33:02;;;;;;;5.85;2.53;;;;;;;30.17;34.67;98973.59;5033130;28;20056;-79
2022/07/20 07:35:29;;;;;;;7.00;2.70;;;;;;;30.55;34.82;98978.81;5033746;28;20404;-79
2022/07/20 07:37:56;;;;;;;4.22;2.67;;;;;;;30.93;33.68;98964.28;5034297;28;20057;-78
2022/07/20 07:40:24;;;;;;;8.38;2.55;;;;;;;31.02;32.73;98972.75;5032679;28;20433;-79
2022/07/20 07:42:50;;;;;;;4.65;2.45;;;;;;;31.52;33.23;98960.28;5033259;28;20374;-79
2022/07/20 07:45:17;;;;;;;8.73;3.08;;;;;;;31.35;32.25;98942.25;5033730;28;20053;-79
2022/07/20 07:47:46;;;;;;;8.65;2.72;;;;;;;31.29;33.30;98959.59;5033924;28;20060;-78
2022/07/20 07:50:13;;;;;;;5.75;2.30;;;;;;;31.21;33.02;98950.00;5030388;28;20057;-79
2022/07/20 07:52:39;;;;;;;13.75;3.05;;;;;;;31.25;33.45;98956.59;5033027;28;20697;-78
2022/07/20 07:55:07;;;;;;;12.35;3.10;;;;;;;31.37;32.37;98944.72;5033920;28;20394;-77
2022/07/20 07:57:35;;;;;;;10.05;2.92;;;;;;;31.51;32.72;98941.75;5030312;28;20061;-78
2022/07/20 08:00:02;;;;;;;5.78;2.80;;;;;;;31.17;32.66;98943.41;5033212;28;20053;-78
2022/07/20 08:02:29;;;;;;;8.50;2.92;;;;;;;31.38;33.34;98944.41;5021888;28;20054;-78
2022/07/20 08:04:55;;;;;;;8.55;3.20;;;;;;;31.48;33.30;98934.84;5033171;28;20049;-78
2022/07/20 08:07:22;;;;;;;7.13;2.50;;;;;;;31.68;31.53;98924.13;5025889;28;20054;-79
2022/07/20 08:09:48;;;;;;;4.45;2.60;;;;;;;31.60;32.07;98942.63;5027882;28;20053;-78
2022/07/20 08:12:15;;;;;;;7.43;3.35;;;;;;;31.55;32.27;98926.75;5032516;28;20803;-78
2022/07/20 08:14:43;;;;;;;6.55;2.97;;;;;;;31.98;31.59;98933.50;5032727;28;20496;-78
2022/07/20 08:17:09;;;;;;;4.97;3.10;;;;;;;32.08;30.96;98926.69;5032563;28;20061;-78
2022/07/20 08:19:36;;;;;;;9.10;3.65;;;;;;;31.83;30.78;98934.84;5032990;28;20060;-78
2022/07/20 08:22:02;;;;;;;9.25;3.47;;;;;;;31.55;31.38;98943.59;5032756;28;20049;-78
2022/07/20 08:24:29;;;;;;;6.65;3.30;;;;;;;31.90;31.56;98948.38;5036259;28;20053;-78
2022/07/20 08:26:55;;;;;;;7.95;3.20;;;;;;;31.93;30.28;98940.13;5037272;28;20065;-78
2022/07/20 08:29:22;;;;;;;9.18;2.80;;;;;;;32.19;31.05;98944.91;5032728;28;20045;-79
2022/07/20 08:31:50;;;;;;;7.15;2.97;;;;;;;32.28;31.03;98933.66;5032974;28;20443;-79
2022/07/20 08:34:16;;;;;;;11.73;3.00;;;;;;;32.27;30.88;98951.66;5031815;28;20046;-79
2022/07/20 08:36:43;;;;;;;8.52;3.13;;;;;;;32.01;30.54;98946.91;5032918;28;20413;-79
2022/07/20 08:39:09;;;;;;;12.20;4.00;;;;;;;32.00;30.13;98938.81;5030822;28;20064;-79
2022/07/20 08:41:36;;;;;;;5.50;3.03;;;;;;;32.29;30.32;98954.97;5040702;28;20045;-79
2022/07/20 08:44:03;;;;;;;6.45;3.60;;;;;;;32.64;30.62;98947.22;5031226;28;20049;-79
2022/07/20 08:46:31;;;;;;;12.15;3.42;;;;;;;32.47;30.21;98931.25;5032743;28;20073;-79
2022/07/20 08:49:00;;;;;;;7.55;3.47;;;;;;;32.80;30.22;98938.25;5031258;28;20068;-79
2022/07/20 08:51:26;;;;;;;10.00;3.65;;;;;;;32.56;29.62;98947.28;5032815;28;20066;-79
2022/07/20 08:53:56;;;;;;;7.30;3.90;;;;;;;32.40;29.92;98930.09;5031256;28;20049;-79
2022/07/20 08:56:22;;;;;;;8.27;3.58;;;;;;;32.51;30.53;98931.41;5032694;28;20136;-79
2022/07/20 08:58:49;;;;;;;10.55;3.88;;;;;;;32.79;29.42;98950.66;5037417;28;20059;-79
2022/07/20 09:01:16;;;;;;;9.77;3.65;;;;;;;32.90;29.56;98935.06;5051417;28;20083;-79
2022/07/20 09:03:44;;;;;;;7.55;3.42;;;;;;;33.04;28.89;98933.97;5040327;28;20053;-79
2022/07/20 09:06:13;;;;;;;6.28;3.45;;;;;;;32.81;29.27;98937.09;5032892;28;20045;-79
2022/07/20 09:09:03;;;;;;;15.60;4.55;;;;;;;32.99;29.30;98946.28;5029899;28;20052;-79
2022/07/20 09:11:31;;;;;;;6.95;3.28;;;;;;;32.80;28.69;98927.00;5032701;28;20481;-78
2022/07/20 09:13:57;;;;;;;7.22;3.55;;;;;;;32.47;30.16;98938.84;5031571;28;20049;-79
2022/07/20 09:16:32;;;;;;;10.43;3.55;;;;;;;32.96;29.60;98938.50;5032647;28;20041;-79
2022/07/20 09:18:58;;;;;;;9.63;3.75;;;;;;;32.84;28.32;98942.03;5032032;28;20424;-79
2022/07/20 09:21:31;;;;;;;11.20;3.78;;;;;;;32.99;28.30;98949.91;5032636;28;20057;-79
2022/07/20 09:24:03;;;;;;;6.93;3.25;;;;;;;33.39;27.60;98959.13;5031242;28;20168;-79
2022/07/20 09:26:29;;;;;;;8.18;4.10;;;;;;;33.54;28.00;98941.59;5032205;28;20052;-79
2022/07/20 09:28:58;;;;;;;8.60;3.63;;;;;;;33.61;26.88;98939.06;5031627;28;20060;-79
2022/07/20 09:31:26;;;;;;;11.90;4.38;;;;;;;33.61;27.54;98938.25;5039089;28;20079;-79
2022/07/20 09:33:55;;;;;;;5.80;2.85;;;;;;;33.93;26.62;98955.56;5024744;28;20046;-78
2022/07/20 09:36:24;;;;;;;5.95;3.88;;;;;;;33.60;27.61;98937.41;5026265;28;20512;-79
2022/07/20 09:38:52;;;;;;;8.15;3.72;;;;;;;33.86;26.97;98951.31;5028635;28;20062;-79
2022/07/20 09:41:24;;;;;;;8.15;3.60;;;;;;;33.77;27.07;98947.75;5028391;28;20057;-79
2022/07/20 09:43:50;;;;;;;12.98;3.78;;;;;;;33.65;27.24;98942.03;5028177;28;20044;-79
2022/07/20 09:46:18;;;;;;;11.35;3.63;;;;;;;33.92;26.32;98949.09;5031459;28;20428;-79
2022/07/20 09:48:46;;;;;;;12.18;3.88;;;;;;;33.96;25.96;98946.41;5045395;28;20044;-79
2022/07/20 09:51:27;;;;;;;15.83;3.63;;;;;;;34.06;26.45;98945.97;5027070;28;20485;-79
2022/07/20 09:53:57;;;;;;;7.85;3.28;;;;;;;34.37;26.30;98958.75;5029296;28;20307;-79
2022/07/20 09:56:25;;;;;;;7.95;3.45;;;;;;;34.55;25.85;98948.09;5029732;28;20053;-77
2022/07/20 09:58:54;;;;;;;13.35;3.65;;;;;;;34.21;25.83;98933.22;5029095;28;20053;-77
2022/07/20 10:01:21;;;;;;;;;;;;;;;34.30;25.95;98945.25;5027127;28;20054;-79
2022/07/20 10:03:50;;;;;;;9.40;3.78;;;;;;;34.50;26.28;98946.34;5028489;28;19921;-79
2022/07/20 10:06:18;;;;;;;11.32;4.05;;;;;;;34.45;26.48;98921.19;5030047;28;20049;-79
2022/07/20 10:08:45;;;;;;;12.13;3.92;;;;;;;34.70;26.65;98933.31;5029759;28;20432;-79
2022/07/20 10:11:15;;;;;;;13.10;3.55;;;;;;;34.75;26.38;98929.44;5028671;28;20048;-79
2022/07/20 10:13:43;;;;;;;6.65;3.40;;;;;;;34.94;26.34;98942.97;5027433;28;20048;-79
2022/07/20 10:16:18;;;;;;;7.70;4.13;;;;;;;34.84;25.98;98941.47;5029932;28;20053;-79
2022/07/20 10:18:45;;;;;;;11.68;4.22;;;;;;;34.73;26.91;98929.78;5028837;28;20057;-79
2022/07/20 10:21:40;;;;;;;12.98;4.28;;;;;;;34.73;26.51;98935.44;5030069;28;20057;-79
2022/07/20 10:24:31;;;;;;;8.43;4.25;;;;;;;34.66;26.32;98917.44;5026565;28;20052;-79
2022/07/20 10:27:26;;;;;;;13.55;3.88;;;;;;;34.94;26.84;98930.88;5029712;28;20053;-79
2022/07/20 10:29:55;;;;;;;10.75;3.30;;;;;;;35.02;26.77;98922.28;5029721;28;20081;-79
2022/07/20 10:32:23;;;;;;;5.70;3.43;;;;;;;35.09;25.54;98930.13;5029392;28;20136;-78
2022/07/20 10:34:51;;;;;;;7.85;3.63;;;;;;;34.91;26.34;98913.47;5025987;28;20421;-78
2022/07/20 10:37:39;;;;;;;5.80;3.83;;;;;;;34.79;27.16;98930.38;5027962;28;20049;-77
2022/07/20 10:40:13;;;;;;;11.57;3.47;;;;;;;35.03;26.45;98921.06;5028963;28;20053;-79
2022/07/20 10:42:42;;;;;;;8.93;3.70;;;;;;;35.25;26.81;98918.94;5028698;28;20486;-79
2022/07/20 10:45:29;;;;;;;6.80;3.40;;;;;;;35.09;26.29;98927.31;5028831;28;20134;-78
2022/07/20 10:47:56;;;;;;;8.65;3.55;;;;;;;35.31;26.18;98937.31;5028292;28;20049;-78
2022/07/20 10:50:25;;;;;;;8.07;3.88;;;;;;;35.52;25.97;98944.81;5028676;28;20464;-79
2022/07/20 10:52:54;;;;;;;3.58;3.28;;;;;;;35.47;25.70;98937.41;5029249;28;20057;-78
2022/07/20 10:55:50;;;;;;;6.28;3.50;;;;;;;35.17;25.81;98932.03;5031634;28;20049;-79
2022/07/20 10:58:21;;;;;;;13.88;3.83;;;;;;;35.44;25.61;98921.97;5030028;28;20505;-79
2022/07/20 11:00:50;;;;;;;6.25;3.83;;;;;;;35.47;25.53;98917.63;5032721;28;20045;-79
2022/07/20 11:03:18;;;;;;;;;;;;;;;35.50;25.39;98927.38;5028224;28;20049;-80
2022/07/20 11:05:46;;;;;;;8.70;4.07;;;;;;;35.75;25.33;98922.47;5032607;28;19927;-81
2022/07/20 11:08:13;;;;;;;11.77;3.92;;;;;;;35.41;26.06;98913.38;5031701;28;20049;-76
2022/07/20 11:10:42;;;;;;;7.75;3.95;;;;;;;35.61;25.36;98905.91;5034438;28;20049;-77
2022/07/20 11:13:11;;;;;;;12.13;3.97;;;;;;;36.00;24.66;98900.56;5031474;28;20045;-77
2022/07/20 11:15:41;;;;;;;13.57;3.70;;;;;;;36.00;24.55;98925.19;5032529;28;20050;-77
2022/07/20 11:18:09;;;;;;;12.43;3.85;;;;;;;35.88;24.52;98911.97;5031221;28;20128;-77
2022/07/20 11:20:36;;;;;;;4.88;3.83;;;;;;;35.74;25.17;98915.16;5033171;28;20053;-77
2022/07/20 11:23:03;;;;;;;10.50;4.32;;;;;;;35.77;25.05;98909.66;5031811;28;20049;-77
2022/07/20 11:25:45;;;;;;;9.63;3.90;;;;;;;35.82;24.31;98897.25;5034838;28;20060;-77
2022/07/20 11:28:12;;;;;;;5.97;3.67;;;;;;;36.04;24.69;98904.31;5031216;28;20268;-77
2022/07/20 11:30:42;;;;;;;6.72;3.70;;;;;;;36.26;23.17;98885.09;5030621;28;20136;-77
2022/07/20 11:33:09;;;;;;;5.75;3.70;;;;;;;36.56;23.63;98905.31;5031461;28;20206;-77
2022/07/20 11:35:36;;;;;;;6.78;4.63;;;;;;;36.18;24.51;98906.72;5031313;28;20410;-79
2022/07/20 11:38:02;;;;;;;7.47;4.15;;;;;;;36.14;24.78;98891.66;5022872;28;20987;-77